createdAt,value
2017-09-28T00:02:25.032Z,12.83
2017-09-28T00:04:53.390Z,12.37
2017-09-28T00:07:23.257Z,12.50
2017-09-28T00:09:51.820Z,13.07
2017-09-28T00:12:20.165Z,14.37
2017-09-28T00:14:49.219Z,13.00
2017-09-28T00:17:17.546Z,12.23
2017-09-28T00:19:45.880Z,13.97
2017-09-28T00:22:14.977Z,12.10
2017-09-28T00:24:43.284Z,13.40
2017-09-28T00:27:11.620Z,13.43
2017-09-28T00:29:40.716Z,13.10
2017-09-28T00:32:09.051Z,12.87
2017-09-28T00:34:37.655Z,13.43
2017-09-28T00:37:06.017Z,13.17
2017-09-28T00:39:35.260Z,12.70
2017-09-28T00:42:03.637Z,13.13
2017-09-28T00:44:31.947Z,12.17
2017-09-28T00:47:00.275Z,13.00
2017-09-28T00:49:29.339Z,15.13
2017-09-28T00:51:57.668Z,13.70
2017-09-28T00:54:25.964Z,13.70
2017-09-28T00:56:54.316Z,12.97
2017-09-28T00:59:22.650Z,12.53
2017-09-28T01:01:50.952Z,14.00
2017-09-28T01:04:19.255Z,13.40
2017-09-28T01:06:47.587Z,11.50
2017-09-28T01:09:15.875Z,13.50
2017-09-28T01:11:44.211Z,11.60
2017-09-28T01:14:13.309Z,13.70
2017-09-28T01:16:41.635Z,11.40
2017-09-28T01:19:10.699Z,12.40
2017-09-28T01:21:39.048Z,11.83
2017-09-28T01:24:07.471Z,12.73
2017-09-28T01:26:36.602Z,14.27
2017-09-28T01:29:05.919Z,13.00
2017-09-28T01:31:35.083Z,11.70
2017-09-28T01:34:03.578Z,13.40
2017-09-28T01:36:31.934Z,11.77
2017-09-28T01:39:00.245Z,13.00
2017-09-28T01:41:29.331Z,11.57
2017-09-28T01:43:57.659Z,11.10
2017-09-28T01:46:25.951Z,11.57
2017-09-28T01:48:54.512Z,12.93
2017-09-28T01:51:22.843Z,10.23
2017-09-28T01:53:51.199Z,12.27
2017-09-28T01:56:19.527Z,11.37
2017-09-28T01:58:47.818Z,12.70
2017-09-28T02:01:16.156Z,11.30
2017-09-28T02:03:44.476Z,10.90
2017-09-28T02:06:12.831Z,12.47
2017-09-28T02:08:41.128Z,11.87
2017-09-28T02:11:09.464Z,11.73
2017-09-28T02:13:37.793Z,11.10
2017-09-28T02:16:06.872Z,11.83
2017-09-28T02:18:35.235Z,11.80
2017-09-28T02:21:03.625Z,9.80
2017-09-28T02:23:32.816Z,11.13
2017-09-28T02:26:01.115Z,10.60
2017-09-28T02:28:29.458Z,11.37
2017-09-28T02:30:58.526Z,10.53
2017-09-28T02:33:26.844Z,10.67
2017-09-28T02:35:55.185Z,10.90
2017-09-28T02:38:24.290Z,11.50
2017-09-28T02:40:53.422Z,11.83
2017-09-28T02:43:22.581Z,10.27
2017-09-28T02:45:50.888Z,10.67
2017-09-28T02:48:19.217Z,10.33
2017-09-28T02:50:47.540Z,11.43
2017-09-28T02:53:15.831Z,9.97
2017-09-28T02:55:44.160Z,9.90
2017-09-28T02:58:13.224Z,10.07
2017-09-28T03:00:41.551Z,10.93
2017-09-28T03:03:09.895Z,10.07
2017-09-28T03:05:38.296Z,10.50
2017-09-28T03:08:07.467Z,11.13
2017-09-28T03:10:35.815Z,10.07
2017-09-28T03:13:04.237Z,9.97
2017-09-28T03:15:32.584Z,10.93
2017-09-28T03:18:02.508Z,9.40
2017-09-28T03:20:30.804Z,11.13
2017-09-28T03:22:59.136Z,10.57
2017-09-28T03:25:27.464Z,10.23
2017-09-28T03:27:56.536Z,11.70
2017-09-28T03:30:24.863Z,11.60
2017-09-28T03:32:53.962Z,10.37
2017-09-28T03:35:22.321Z,11.60
2017-09-28T03:37:50.782Z,10.70
2017-09-28T03:40:19.091Z,11.80
2017-09-28T03:42:48.166Z,12.00
2017-09-28T03:45:16.485Z,11.90
2017-09-28T03:47:44.791Z,11.23
2017-09-28T03:50:13.115Z,11.23
2017-09-28T03:52:41.517Z,11.37
2017-09-28T03:55:09.924Z,11.17
2017-09-28T03:57:38.406Z,10.63
2017-09-28T04:00:06.826Z,10.40
2017-09-28T04:02:35.219Z,9.80
2017-09-28T04:05:03.679Z,10.67
2017-09-28T04:07:32.013Z,11.57
2017-09-28T04:10:00.307Z,11.83
2017-09-28T04:12:28.641Z,11.67
2017-09-28T04:14:56.927Z,10.37
2017-09-28T04:17:25.224Z,11.67
2017-09-28T04:19:53.547Z,10.17
2017-09-28T04:22:21.851Z,11.73
2017-09-28T04:24:50.180Z,12.83
2017-09-28T04:27:19.257Z,11.53
2017-09-28T04:29:47.581Z,11.07
2017-09-28T04:32:15.957Z,12.67
2017-09-28T04:34:44.380Z,11.10
2017-09-28T04:37:12.702Z,10.57
2017-09-28T04:39:41.768Z,11.67
2017-09-28T04:42:10.096Z,10.60
2017-09-28T04:44:38.416Z,11.70
2017-09-28T04:47:06.770Z,11.30
2017-09-28T04:49:35.068Z,12.47
2017-09-28T04:52:03.426Z,12.10
2017-09-28T04:54:31.724Z,10.57
2017-09-28T04:57:00.059Z,11.23
2017-09-28T04:59:28.356Z,10.97
2017-09-28T05:01:57.416Z,13.37
2017-09-28T05:04:25.752Z,10.50
2017-09-28T05:06:54.085Z,13.40
2017-09-28T05:09:22.404Z,11.60
2017-09-28T05:11:50.735Z,12.63
2017-09-28T05:14:19.044Z,12.43
2017-09-28T05:16:47.367Z,12.40
2017-09-28T05:19:16.431Z,13.60
2017-09-28T05:21:44.776Z,12.57
2017-09-28T05:24:13.106Z,12.70
2017-09-28T05:26:42.167Z,12.97
2017-09-28T05:29:10.499Z,12.97
2017-09-28T05:31:38.837Z,13.10
2017-09-28T05:34:07.907Z,12.77
2017-09-28T05:36:36.288Z,13.27
2017-09-28T05:39:04.625Z,12.50
2017-09-28T05:41:32.949Z,11.70
2017-09-28T05:44:02.020Z,13.27
2017-09-28T05:46:30.343Z,12.43
2017-09-28T05:48:58.743Z,13.53
2017-09-28T05:51:27.075Z,12.50
2017-09-28T05:53:56.175Z,13.53
2017-09-28T05:56:24.471Z,13.40
2017-09-28T05:58:52.806Z,12.43
2017-09-28T06:01:21.882Z,12.87
2017-09-28T06:03:51.403Z,14.27
2017-09-28T06:06:20.524Z,14.03
2017-09-28T06:08:48.818Z,13.13
2017-09-28T06:11:17.269Z,13.40
2017-09-28T06:13:45.669Z,15.17
2017-09-28T06:16:13.996Z,15.33
2017-09-28T06:18:43.099Z,15.23
2017-09-28T06:21:11.400Z,13.40
2017-09-28T06:23:39.700Z,15.37
2017-09-28T06:26:08.031Z,13.13
2017-09-28T06:28:37.155Z,14.70
2017-09-28T06:31:06.287Z,15.20
2017-09-28T06:33:34.612Z,16.57
2017-09-28T06:36:02.916Z,14.23
2017-09-28T06:38:31.236Z,13.87
2017-09-28T06:40:59.535Z,14.73
2017-09-28T06:43:27.900Z,14.30
2017-09-28T06:45:56.191Z,14.97
2017-09-28T06:48:24.488Z,14.47
2017-09-28T06:50:52.836Z,14.17
2017-09-28T06:53:21.180Z,15.50
2017-09-28T06:55:50.313Z,15.50
2017-09-28T06:58:19.383Z,15.13
2017-09-28T07:00:47.712Z,14.03
2017-09-28T07:03:16.003Z,15.30
2017-09-28T07:05:44.340Z,14.10
2017-09-28T07:08:13.445Z,13.50
2017-09-28T07:10:42.751Z,13.80
2017-09-28T07:13:11.088Z,14.73
2017-09-28T07:15:40.142Z,13.43
2017-09-28T07:18:08.493Z,14.10
2017-09-28T07:20:38.323Z,16.10
2017-09-28T07:23:08.188Z,13.77
2017-09-28T07:25:37.331Z,14.90
2017-09-28T07:28:05.686Z,14.47
2017-09-28T07:30:34.024Z,14.07
2017-09-28T07:33:02.325Z,13.83
2017-09-28T07:35:30.656Z,13.70
2017-09-28T07:37:58.980Z,12.87
2017-09-28T07:40:27.279Z,13.97
2017-09-28T07:42:55.631Z,14.47
2017-09-28T07:45:23.923Z,13.50
2017-09-28T07:47:52.992Z,13.47
2017-09-28T07:50:21.436Z,13.00
2017-09-28T07:52:50.535Z,16.20
2017-09-28T07:55:18.864Z,14.83
2017-09-28T07:57:47.956Z,14.87
2017-09-28T08:00:16.256Z,16.30
2017-09-28T08:02:44.672Z,16.40
2017-09-28T08:05:12.976Z,14.93
2017-09-28T08:07:41.368Z,17.80
2017-09-28T08:10:09.665Z,15.57
2017-09-28T08:12:38.001Z,15.53
2017-09-28T08:15:07.164Z,16.90
2017-09-28T08:17:35.468Z,15.03
2017-09-28T08:20:03.852Z,15.33
2017-09-28T08:22:32.147Z,15.60
2017-09-28T08:25:00.468Z,14.90
2017-09-28T08:27:28.807Z,14.77
2017-09-28T08:29:59.938Z,15.33
2017-09-28T08:32:28.275Z,16.40
2017-09-28T08:34:56.578Z,15.43
2017-09-28T08:37:24.872Z,15.83
2017-09-28T08:39:53.208Z,16.30
2017-09-28T08:42:22.315Z,14.10
2017-09-28T08:44:50.703Z,14.93
2017-09-28T08:47:19.131Z,17.70
2017-09-28T08:49:48.211Z,14.77
2017-09-28T08:52:16.556Z,16.00
2017-09-28T08:54:45.624Z,15.23
2017-09-28T08:57:13.928Z,16.67
2017-09-28T08:59:42.252Z,15.73
2017-09-28T09:02:10.559Z,14.33
2017-09-28T09:04:38.958Z,16.33
2017-09-28T09:07:07.267Z,15.27
2017-09-28T09:09:35.581Z,15.80
2017-09-28T09:12:04.347Z,17.13
2017-09-28T09:14:32.788Z,17.50
2017-09-28T09:17:02.640Z,15.77
2017-09-28T09:19:30.935Z,16.37
2017-09-28T09:21:59.234Z,17.93
2017-09-28T09:24:27.556Z,18.30
2017-09-28T09:26:56.644Z,16.83
2017-09-28T09:29:25.044Z,16.80
2017-09-28T09:31:53.384Z,17.67
2017-09-28T09:34:22.449Z,18.17
2017-09-28T09:36:50.776Z,15.93
2017-09-28T09:39:19.275Z,15.07
2017-09-28T09:41:47.572Z,18.20
2017-09-28T09:44:15.868Z,17.17
2017-09-28T09:46:44.280Z,16.93
2017-09-28T09:49:12.787Z,17.87
2017-09-28T09:51:41.114Z,17.83
2017-09-28T09:54:10.315Z,16.07
2017-09-28T09:56:38.619Z,16.60
2017-09-28T09:59:06.955Z,16.50
2017-09-28T10:01:36.025Z,17.03
2017-09-28T10:04:04.343Z,15.63
2017-09-28T10:06:36.323Z,16.40
2017-09-28T10:09:21.772Z,15.50
2017-09-28T10:12:01.668Z,16.43
2017-09-28T10:14:41.916Z,16.60
2017-09-28T10:17:14.428Z,14.70
2017-09-28T10:19:43.491Z,15.10
2017-09-28T10:22:11.815Z,15.37
2017-09-28T10:24:40.111Z,15.80
2017-09-28T10:27:08.444Z,15.03
2017-09-28T10:29:37.656Z,13.47
2017-09-28T10:32:05.948Z,14.60
2017-09-28T10:34:34.467Z,16.60
2017-09-28T10:37:03.572Z,15.97
2017-09-28T10:39:31.859Z,16.13
2017-09-28T10:42:00.183Z,17.00
2017-09-28T10:44:28.476Z,16.43
2017-09-28T10:46:56.820Z,16.00
2017-09-28T10:49:25.875Z,15.77
2017-09-28T10:51:54.172Z,16.23
2017-09-28T10:54:22.503Z,16.10
2017-09-28T10:56:50.843Z,16.43
2017-09-28T10:59:19.904Z,16.10
2017-09-28T11:01:48.194Z,16.70
2017-09-28T11:04:16.527Z,15.43
2017-09-28T11:06:44.860Z,15.27
2017-09-28T11:09:13.184Z,15.37
2017-09-28T11:11:41.518Z,17.37
2017-09-28T11:14:09.807Z,16.53
2017-09-28T11:16:38.131Z,15.83
2017-09-28T11:19:06.491Z,16.53
2017-09-28T11:21:34.868Z,18.63
2017-09-28T11:24:03.996Z,16.87
2017-09-28T11:26:33.122Z,15.30
2017-09-28T11:29:02.216Z,17.47
2017-09-28T11:31:30.512Z,14.50
2017-09-28T11:33:58.831Z,15.23
2017-09-28T11:36:27.775Z,16.40
2017-09-28T11:38:56.108Z,16.77
2017-09-28T11:41:24.375Z,14.67
2017-09-28T11:43:52.719Z,15.10
2017-09-28T11:46:21.046Z,15.00
2017-09-28T11:48:49.367Z,16.60
2017-09-28T11:51:18.460Z,14.77
2017-09-28T11:53:47.556Z,15.80
2017-09-28T11:56:15.872Z,16.30
2017-09-28T11:58:44.168Z,15.50
2017-09-28T12:01:12.692Z,16.53
2017-09-28T12:03:40.987Z,15.77
2017-09-28T12:06:09.292Z,15.47
2017-09-28T12:08:37.706Z,15.43
2017-09-28T12:11:06.009Z,14.83
2017-09-28T12:13:34.327Z,16.87
2017-09-28T12:16:03.384Z,16.83
2017-09-28T12:18:31.678Z,15.57
2017-09-28T12:21:00.106Z,15.10
2017-09-28T12:23:28.400Z,14.87
2017-09-28T12:25:56.732Z,15.13
2017-09-28T12:28:25.051Z,14.20
2017-09-28T12:30:53.383Z,13.47
2017-09-28T12:33:21.688Z,15.60
2017-09-28T12:35:50.040Z,15.70
2017-09-28T12:38:18.379Z,14.77
2017-09-28T12:40:47.564Z,14.07
2017-09-28T12:43:15.864Z,14.57
2017-09-28T12:45:44.183Z,16.67
2017-09-28T12:48:12.502Z,14.17
2017-09-28T12:50:41.696Z,14.90
2017-09-28T12:53:09.983Z,13.97
2017-09-28T12:55:38.312Z,13.90
2017-09-28T12:58:06.624Z,14.07
2017-09-28T13:00:35.729Z,15.43
2017-09-28T13:03:04.052Z,13.17
2017-09-28T13:05:33.143Z,13.00
2017-09-28T13:08:01.539Z,13.70
2017-09-28T13:10:29.940Z,12.63
2017-09-28T13:12:58.231Z,13.00
2017-09-28T13:15:26.751Z,14.23
2017-09-28T13:17:55.156Z,13.83
2017-09-28T13:20:23.535Z,12.27
2017-09-28T13:22:51.827Z,12.33
2017-09-28T13:25:20.119Z,12.27
2017-09-28T13:27:48.491Z,14.77
2017-09-28T13:30:16.788Z,11.90
2017-09-28T13:32:45.075Z,13.07
2017-09-28T13:35:13.400Z,12.47
2017-09-28T13:37:41.723Z,12.27
2017-09-28T13:40:10.025Z,12.50
2017-09-28T13:42:39.300Z,12.10
2017-09-28T13:45:07.596Z,12.07
2017-09-28T13:47:35.899Z,11.70
2017-09-28T13:50:04.257Z,12.90
2017-09-28T13:52:32.547Z,12.33
2017-09-28T13:55:01.648Z,12.27
2017-09-28T13:57:29.975Z,11.47
2017-09-28T13:59:58.268Z,12.80
2017-09-28T14:02:27.457Z,14.13
2017-09-28T14:04:55.752Z,11.97
2017-09-28T14:07:24.164Z,12.10
2017-09-28T14:09:52.523Z,12.40
2017-09-28T14:12:20.827Z,12.80
2017-09-28T14:14:49.119Z,12.43
2017-09-28T14:17:17.475Z,13.10
2017-09-28T14:19:45.767Z,13.07
2017-09-28T14:22:14.100Z,13.03
2017-09-28T14:24:43.200Z,12.70
2017-09-28T14:27:11.595Z,14.23
2017-09-28T14:29:39.887Z,13.40
2017-09-28T14:32:08.206Z,13.30
2017-09-28T14:34:36.620Z,15.53
2017-09-28T14:37:05.008Z,13.60
2017-09-28T14:39:33.417Z,13.87
2017-09-28T14:42:02.520Z,14.57
2017-09-28T14:44:30.821Z,16.30
2017-09-28T14:46:59.107Z,14.90
2017-09-28T14:49:27.445Z,14.87
2017-09-28T14:51:55.740Z,14.30
2017-09-28T14:54:24.144Z,16.37
2017-09-28T14:56:52.483Z,14.90
2017-09-28T14:59:21.593Z,15.07
2017-09-28T15:01:50.732Z,16.67
2017-09-28T15:04:19.795Z,15.50
2017-09-28T15:06:48.124Z,15.43
2017-09-28T15:09:16.423Z,14.80
2017-09-28T15:11:44.744Z,14.30
2017-09-28T15:14:13.843Z,15.27
2017-09-28T15:16:43.776Z,15.10
2017-09-28T15:19:12.180Z,14.47
2017-09-28T15:21:40.504Z,14.00
2017-09-28T15:24:08.805Z,13.10
2017-09-28T15:26:37.135Z,14.33
2017-09-28T15:29:05.466Z,14.23
2017-09-28T15:31:33.859Z,13.87
2017-09-28T15:34:02.196Z,14.20
2017-09-28T15:36:30.495Z,15.87
2017-09-28T15:38:58.893Z,15.03
2017-09-28T15:41:27.211Z,15.93
2017-09-28T15:43:57.013Z,15.10
2017-09-28T15:46:25.339Z,15.37
2017-09-28T15:48:53.632Z,16.30
2017-09-28T15:51:22.048Z,15.30
2017-09-28T15:53:50.556Z,16.77
2017-09-28T15:56:18.960Z,17.10
2017-09-28T15:58:47.278Z,25.97
2017-09-28T16:01:15.575Z,21.80
2017-09-28T16:03:45.408Z,15.33
2017-09-28T16:06:13.800Z,20.10
2017-09-28T16:08:42.091Z,18.40
2017-09-28T16:11:10.503Z,16.00
2017-09-28T16:13:38.827Z,15.70
2017-09-28T16:16:07.158Z,16.10
2017-09-28T16:18:36.336Z,17.50
2017-09-28T16:21:06.188Z,15.53
2017-09-28T16:23:34.520Z,16.37
2017-09-28T16:26:02.852Z,16.00
2017-09-28T16:28:31.144Z,16.03
2017-09-28T16:30:59.471Z,16.73
2017-09-28T16:33:27.800Z,18.53
2017-09-28T16:35:56.124Z,18.63
2017-09-28T16:38:25.224Z,17.57
2017-09-28T16:40:53.543Z,18.63
2017-09-28T16:43:22.951Z,18.20
2017-09-28T16:45:51.247Z,18.47
2017-09-28T16:48:21.094Z,18.60
2017-09-28T16:50:50.936Z,19.17
2017-09-28T16:53:19.229Z,20.23
2017-09-28T16:55:47.520Z,20.23
2017-09-28T16:58:15.836Z,20.23
2017-09-28T17:00:44.221Z,22.30
2017-09-28T17:03:12.624Z,20.93
2017-09-28T17:05:40.958Z,20.37
2017-09-28T17:08:10.048Z,22.50
2017-09-28T17:10:38.392Z,20.83
2017-09-28T17:13:07.460Z,21.50
2017-09-28T17:15:35.795Z,20.60
2017-09-28T17:18:04.888Z,20.57
2017-09-28T17:20:33.182Z,23.50
2017-09-28T17:23:01.512Z,21.47
2017-09-28T17:25:29.833Z,22.50
2017-09-28T17:27:58.900Z,23.27
2017-09-28T17:30:27.315Z,20.80
2017-09-28T17:32:55.608Z,21.30
2017-09-28T17:35:23.936Z,20.70
2017-09-28T17:37:52.231Z,21.57
2017-09-28T17:40:20.632Z,22.13
2017-09-28T17:42:48.971Z,21.23
2017-09-28T17:45:18.042Z,22.27
2017-09-28T17:47:46.332Z,19.50
2017-09-28T17:50:14.761Z,24.33
2017-09-28T17:52:43.055Z,22.40
2017-09-28T17:55:11.468Z,23.00
2017-09-28T17:57:39.756Z,24.50
2017-09-28T18:00:08.275Z,23.03
2017-09-28T18:02:36.566Z,25.33
2017-09-28T18:05:04.874Z,22.97
2017-09-28T18:07:33.195Z,26.53
2017-09-28T18:10:01.592Z,23.90
2017-09-28T18:12:29.900Z,27.20
2017-09-28T18:14:59.128Z,25.43
2017-09-28T18:17:28.192Z,26.47
2017-09-28T18:19:56.488Z,26.73
2017-09-28T18:22:24.835Z,26.73
2017-09-28T18:24:53.228Z,25.60
2017-09-28T18:27:21.528Z,25.20
2017-09-28T18:29:49.832Z,25.47
2017-09-28T18:32:18.156Z,25.40
2017-09-28T18:34:46.556Z,26.77
2017-09-28T18:37:16.403Z,25.30
2017-09-28T18:39:44.708Z,26.63
2017-09-28T18:42:13.023Z,26.40
2017-09-28T18:44:42.103Z,27.90
2017-09-28T18:47:10.444Z,26.40
2017-09-28T18:49:39.509Z,28.70
2017-09-28T18:52:07.836Z,27.97
2017-09-28T18:54:37.682Z,27.03
2017-09-28T18:57:07.616Z,27.13
2017-09-28T18:59:37.460Z,27.60
2017-09-28T19:02:05.771Z,27.00
2017-09-28T19:04:34.867Z,31.17
2017-09-28T19:07:03.209Z,28.00
2017-09-28T19:09:32.264Z,28.30
2017-09-28T19:12:00.566Z,28.77
2017-09-28T19:14:28.895Z,89.70
2017-09-28T19:16:58.732Z,62.47
2017-09-28T19:19:27.062Z,36.40
2017-09-28T19:21:56.152Z,32.47
2017-09-28T19:24:24.467Z,30.73
2017-09-28T19:26:54.292Z,32.40
2017-09-28T19:29:22.617Z,33.60
2017-09-28T19:31:50.917Z,30.63
2017-09-28T19:34:19.248Z,33.03
2017-09-28T19:36:47.576Z,30.37
2017-09-28T19:39:16.004Z,29.77
2017-09-28T19:41:44.300Z,32.20
2017-09-28T19:44:12.612Z,31.60
2017-09-28T19:46:41.007Z,30.33
2017-09-28T19:49:09.300Z,31.57
2017-09-28T19:51:37.831Z,31.20
2017-09-28T19:54:06.136Z,33.30
2017-09-28T19:56:35.200Z,31.13
2017-09-28T19:59:03.548Z,32.37
2017-09-28T20:01:33.355Z,32.20
2017-09-28T20:04:01.676Z,30.27
2017-09-28T20:06:29.964Z,33.00
2017-09-28T20:08:58.259Z,30.40
2017-09-28T20:11:26.579Z,33.17
2017-09-28T20:13:54.924Z,32.60
2017-09-28T20:16:23.980Z,29.30
2017-09-28T20:18:52.272Z,31.60
2017-09-28T20:21:20.597Z,32.40
2017-09-28T20:23:48.892Z,29.93
2017-09-28T20:26:17.211Z,29.50
2017-09-28T20:28:45.615Z,31.80
2017-09-28T20:31:13.953Z,30.07
2017-09-28T20:33:42.332Z,30.73
2017-09-28T20:36:10.728Z,32.97
2017-09-28T20:38:39.052Z,31.90
2017-09-28T20:41:07.354Z,32.77
2017-09-28T20:43:36.460Z,31.03
2017-09-28T20:46:06.310Z,31.53
2017-09-28T20:48:34.628Z,30.33
2017-09-28T20:51:02.985Z,31.87
2017-09-28T20:53:31.311Z,31.23
2017-09-28T20:55:59.640Z,32.60
2017-09-28T20:58:28.703Z,32.60
2017-09-28T21:00:57.039Z,30.40
2017-09-28T21:03:25.375Z,28.90
2017-09-28T21:05:53.744Z,30.83
2017-09-28T21:08:22.136Z,31.73
2017-09-28T21:10:50.456Z,32.03
2017-09-28T21:13:18.840Z,30.93
2017-09-28T21:15:47.133Z,29.47
2017-09-28T21:18:15.429Z,30.13
2017-09-28T21:20:43.763Z,29.27
2017-09-28T21:23:13.568Z,32.53
2017-09-28T21:25:42.008Z,31.50
2017-09-28T21:28:11.004Z,29.47
2017-09-28T21:30:39.368Z,31.10
2017-09-28T21:33:08.107Z,29.80
2017-09-28T21:35:36.613Z,30.47
2017-09-28T21:38:06.667Z,31.40
2017-09-28T21:40:35.372Z,31.27
2017-09-28T21:43:05.284Z,30.50
2017-09-28T21:45:34.377Z,32.30
2017-09-28T21:48:04.186Z,29.27
2017-09-28T21:50:33.276Z,29.17
2017-09-28T21:53:01.581Z,31.83
2017-09-28T21:55:29.980Z,31.40
2017-09-28T21:57:58.287Z,32.90
2017-09-28T22:00:26.611Z,31.73
2017-09-28T22:02:54.948Z,31.90
2017-09-28T22:05:24.280Z,32.40
2017-09-28T22:07:53.741Z,30.90
2017-09-28T22:10:22.023Z,32.80
2017-09-28T22:12:50.349Z,31.90
2017-09-28T22:15:18.643Z,30.60
2017-09-28T22:17:46.959Z,30.30
2017-09-28T22:20:15.276Z,31.87
2017-09-28T22:22:43.608Z,33.30
2017-09-28T22:25:12.664Z,32.60
2017-09-28T22:27:40.956Z,32.10
2017-09-28T22:30:09.703Z,30.17
2017-09-28T22:35:14.098Z,31.30
2017-09-28T22:37:42.425Z,31.30
2017-09-28T22:40:10.816Z,30.40
2017-09-28T22:42:40.686Z,30.80
2017-09-28T22:45:09.257Z,30.60
2017-09-28T22:47:37.681Z,31.20
2017-09-28T22:50:06.255Z,32.60
2017-09-28T22:52:34.846Z,31.63
2017-09-28T22:55:03.674Z,30.67
2017-09-28T22:57:32.075Z,30.00
2017-09-28T23:00:00.394Z,30.77
2017-09-28T23:02:28.693Z,29.90
2017-09-28T23:04:57.035Z,29.77
2017-09-28T23:07:26.387Z,28.17
2017-09-28T23:09:54.913Z,30.33
2017-09-28T23:12:23.417Z,29.97
2017-09-28T23:14:51.724Z,31.80
2017-09-28T23:17:20.022Z,28.80
2017-09-28T23:19:48.444Z,29.90
2017-09-28T23:22:16.763Z,30.27
2017-09-28T23:24:46.565Z,29.97
2017-09-28T23:27:15.088Z,29.33
2017-09-28T23:29:43.379Z,31.23
2017-09-28T23:32:11.711Z,29.80
2017-09-28T23:34:40.897Z,29.80
2017-09-28T23:37:09.192Z,31.73
2017-09-28T23:39:37.692Z,30.27
2017-09-28T23:42:06.237Z,27.30
2017-09-28T23:44:34.644Z,29.30
2017-09-28T23:47:04.032Z,29.00
2017-09-28T23:49:32.382Z,28.97
2017-09-28T23:52:00.680Z,29.13
2017-09-28T23:54:28.995Z,27.43
2017-09-28T23:56:58.083Z,29.20
2017-09-28T23:59:26.379Z,27.80
